createdAt,value
2022-11-05T00:02:32.538Z,5.95
2022-11-05T00:05:17.594Z,5.93
2022-11-05T00:08:09.062Z,5.80
2022-11-05T00:10:38.508Z,4.97
2022-11-05T00:13:25.815Z,5.28
2022-11-05T00:16:11.146Z,5.55
2022-11-05T00:18:37.665Z,5.22
2022-11-05T00:21:04.543Z,6.15
2022-11-05T00:23:49.632Z,5.90
2022-11-05T00:26:16.086Z,5.97
2022-11-05T00:28:43.767Z,5.28
2022-11-05T00:31:14.193Z,5.05
2022-11-05T00:33:42.363Z,5.72
2022-11-05T00:36:10.929Z,6.10
2022-11-05T00:38:37.590Z,6.03
2022-11-05T00:41:04.022Z,5.75
2022-11-05T00:43:49.202Z,5.68
2022-11-05T00:46:15.714Z,6.00
2022-11-05T00:49:00.461Z,6.03
2022-11-05T00:51:26.809Z,5.27
2022-11-05T00:53:53.223Z,5.15
2022-11-05T00:56:19.596Z,5.55
2022-11-05T00:58:46.152Z,5.95
2022-11-05T01:01:12.771Z,5.47
2022-11-05T01:03:39.969Z,5.55
2022-11-05T01:06:12.936Z,5.28
2022-11-05T01:08:40.952Z,5.32
2022-11-05T01:11:10.753Z,5.45
2022-11-05T01:13:38.600Z,5.25
2022-11-05T01:16:08.059Z,5.32
2022-11-05T01:18:36.232Z,4.90
2022-11-05T01:21:13.430Z,4.60
2022-11-05T01:27:20.603Z,5.20
2022-11-05T01:29:46.967Z,4.88
2022-11-05T01:32:13.358Z,5.20
2022-11-05T01:34:39.769Z,5.13
2022-11-05T01:37:06.213Z,4.70
2022-11-05T01:39:32.548Z,5.93
2022-11-05T01:41:58.947Z,4.90
2022-11-05T01:45:02.582Z,4.60
2022-11-05T01:47:39.209Z,5.07
2022-11-05T01:50:23.877Z,5.03
2022-11-05T01:52:54.206Z,5.07
2022-11-05T01:55:26.285Z,5.40
2022-11-05T01:57:56.498Z,6.35
2022-11-05T02:00:22.886Z,9.68
2022-11-05T02:02:49.577Z,10.05
2022-11-05T02:05:16.306Z,10.40
2022-11-05T02:07:45.410Z,11.95
2022-11-05T02:10:14.670Z,10.40
2022-11-05T02:12:45.545Z,14.57
2022-11-05T02:15:14.175Z,15.55
2022-11-05T02:17:46.412Z,14.93
2022-11-05T02:20:23.549Z,17.02
2022-11-05T02:22:52.903Z,17.80
2022-11-05T02:25:41.281Z,17.02
2022-11-05T02:28:13.278Z,20.38
2022-11-05T02:31:10.665Z,19.67
2022-11-05T02:34:24.713Z,19.58
2022-11-05T02:37:16.136Z,20.33
2022-11-05T02:39:58.926Z,19.02
2022-11-05T02:43:02.231Z,20.58
2022-11-05T02:45:51.238Z,20.27
2022-11-05T02:48:36.193Z,20.15
2022-11-05T02:51:16.162Z,21.50
2022-11-05T02:53:53.485Z,23.08
2022-11-05T02:56:32.884Z,21.83
2022-11-05T02:58:59.498Z,21.40
2022-11-05T03:01:26.003Z,20.92
2022-11-05T03:03:57.219Z,22.77
2022-11-05T03:06:50.691Z,20.95
2022-11-05T03:09:16.959Z,22.73
2022-11-05T03:11:49.474Z,21.55
2022-11-05T03:14:43.644Z,21.95
2022-11-05T03:17:29.277Z,21.27
2022-11-05T03:22:36.795Z,20.90
2022-11-05T03:25:08.192Z,21.40
2022-11-05T03:27:39.849Z,22.23
2022-11-05T03:30:09.057Z,22.95
2022-11-05T03:32:41.139Z,22.95
2022-11-05T03:35:41.710Z,23.60
2022-11-05T03:38:15.469Z,22.77
2022-11-05T03:40:45.040Z,21.90
2022-11-05T03:43:13.826Z,23.05
2022-11-05T03:45:47.439Z,22.27
2022-11-05T03:48:16.011Z,23.17
2022-11-05T03:50:50.148Z,22.20
2022-11-05T03:53:22.413Z,24.23
2022-11-05T03:56:01.807Z,23.10
2022-11-05T03:58:29.568Z,23.92
2022-11-05T04:00:56.132Z,24.15
2022-11-05T04:03:22.473Z,24.38
2022-11-05T04:06:09.461Z,22.50
2022-11-05T04:08:54.588Z,23.75
2022-11-05T04:11:40.037Z,21.52
2022-11-05T04:14:06.405Z,23.85
2022-11-05T04:16:51.560Z,22.55
2022-11-05T04:19:37.889Z,23.35
2022-11-05T04:22:22.651Z,21.33
2022-11-05T04:24:49.044Z,20.52
2022-11-05T04:27:15.451Z,21.80
2022-11-05T04:30:00.367Z,21.42
2022-11-05T04:32:26.766Z,23.20
2022-11-05T04:34:53.086Z,20.83
2022-11-05T04:37:19.445Z,22.63
2022-11-05T04:39:45.848Z,21.25
2022-11-05T04:42:12.201Z,22.63
2022-11-05T04:44:38.541Z,20.67
2022-11-05T04:47:04.949Z,20.35
2022-11-05T04:49:31.287Z,19.05
2022-11-05T04:51:57.728Z,21.27
2022-11-05T04:54:24.078Z,19.48
2022-11-05T04:56:50.487Z,18.83
2022-11-05T04:59:16.821Z,19.58
2022-11-05T05:01:43.245Z,17.92
2022-11-05T05:04:09.635Z,17.88
2022-11-05T05:06:36.375Z,16.77
2022-11-05T05:09:02.759Z,15.57
2022-11-05T05:11:29.146Z,16.75
2022-11-05T05:13:55.517Z,17.60
2022-11-05T05:16:24.370Z,16.73
2022-11-05T05:18:51.192Z,16.05
2022-11-05T05:21:38.218Z,15.70
2022-11-05T05:24:21.074Z,15.38
2022-11-05T05:26:49.104Z,14.75
2022-11-05T05:29:16.146Z,16.10
2022-11-05T05:31:43.323Z,15.80
2022-11-05T05:34:14.393Z,16.63
2022-11-05T05:36:41.066Z,16.83
2022-11-05T05:39:10.651Z,15.38
2022-11-05T05:41:37.034Z,13.88
2022-11-05T05:44:05.301Z,14.05
2022-11-05T05:46:31.676Z,13.98
2022-11-05T05:48:58.091Z,13.88
2022-11-05T05:51:24.424Z,12.88
2022-11-05T05:53:50.923Z,14.10
2022-11-05T05:56:20.357Z,11.32
2022-11-05T05:58:47.153Z,12.65
2022-11-05T06:01:19.261Z,13.68
2022-11-05T06:03:47.792Z,12.93
2022-11-05T06:06:15.324Z,13.30
2022-11-05T06:08:42.301Z,12.07
2022-11-05T06:11:08.835Z,13.93
2022-11-05T06:13:35.946Z,13.48
2022-11-05T06:16:07.800Z,12.80
2022-11-05T06:18:35.185Z,13.00
2022-11-05T06:21:09.815Z,12.90
2022-11-05T06:23:38.192Z,12.27
2022-11-05T06:26:09.414Z,13.20
2022-11-05T06:28:36.140Z,11.93
2022-11-05T06:31:03.080Z,11.18
2022-11-05T06:33:29.449Z,11.75
2022-11-05T06:35:59.008Z,12.23
2022-11-05T06:38:25.374Z,10.48
2022-11-05T06:40:51.782Z,11.20
2022-11-05T06:43:18.299Z,11.07
2022-11-05T06:45:44.637Z,10.00
2022-11-05T06:48:10.961Z,9.85
2022-11-05T06:50:37.322Z,11.50
2022-11-05T06:53:04.600Z,10.60
2022-11-05T06:55:32.044Z,10.45
2022-11-05T06:57:58.409Z,10.82
2022-11-05T07:00:24.840Z,10.70
2022-11-05T07:02:51.234Z,10.48
2022-11-05T07:05:17.638Z,11.15
2022-11-05T07:07:45.076Z,10.07
2022-11-05T07:10:16.802Z,9.52
2022-11-05T07:12:43.573Z,10.68
2022-11-05T07:15:11.922Z,10.73
2022-11-05T07:17:39.284Z,10.95
2022-11-05T07:20:07.494Z,11.15
2022-11-05T07:22:34.905Z,11.27
2022-11-05T07:25:01.481Z,11.85
2022-11-05T07:27:27.878Z,10.18
2022-11-05T07:29:54.248Z,11.45
2022-11-05T07:32:20.673Z,10.45
2022-11-05T07:34:47.077Z,9.88
2022-11-05T07:37:16.664Z,11.70
2022-11-05T07:39:43.087Z,10.50
2022-11-05T07:42:13.455Z,11.50
2022-11-05T07:44:39.832Z,11.10
2022-11-05T07:47:06.175Z,11.57
2022-11-05T07:49:32.568Z,11.05
2022-11-05T07:51:58.959Z,12.38
2022-11-05T07:54:26.545Z,11.45
2022-11-05T07:56:53.008Z,11.23
2022-11-05T07:59:19.387Z,10.70
2022-11-05T08:01:45.938Z,10.00
2022-11-05T08:04:12.631Z,11.32
2022-11-05T08:06:39.048Z,10.55
2022-11-05T08:09:05.586Z,10.18
2022-11-05T08:11:32.157Z,10.50
2022-11-05T08:13:58.625Z,10.38
2022-11-05T08:16:25.085Z,9.90
2022-11-05T08:18:51.529Z,10.20
2022-11-05T08:21:17.932Z,8.65
2022-11-05T08:23:44.454Z,9.93
2022-11-05T08:26:10.820Z,9.73
2022-11-05T08:28:37.294Z,10.48
2022-11-05T08:31:03.754Z,10.38
2022-11-05T08:33:31.261Z,11.45
2022-11-05T08:36:02.247Z,12.35
2022-11-05T08:38:28.819Z,11.07
2022-11-05T08:40:57.560Z,10.77
2022-11-05T08:43:24.384Z,9.80
2022-11-05T08:45:50.791Z,10.95
2022-11-05T08:48:18.518Z,10.05
2022-11-05T08:50:46.764Z,9.90
2022-11-05T08:53:13.523Z,9.38
2022-11-05T08:55:40.596Z,9.63
2022-11-05T08:58:12.412Z,8.43
2022-11-05T09:00:39.891Z,8.85
2022-11-05T09:03:07.768Z,9.02
2022-11-05T09:05:37.811Z,7.80
2022-11-05T09:08:08.534Z,8.35
2022-11-05T09:10:35.022Z,8.73
2022-11-05T09:13:01.520Z,8.40
2022-11-05T09:15:29.557Z,7.97
2022-11-05T09:17:56.284Z,7.82
2022-11-05T09:20:23.239Z,6.72
2022-11-05T09:22:49.725Z,6.50
2022-11-05T09:25:16.504Z,6.47
2022-11-05T09:27:43.437Z,5.80
2022-11-05T09:30:11.648Z,5.95
2022-11-05T09:32:38.620Z,5.57
2022-11-05T09:35:05.608Z,4.95
2022-11-05T09:37:31.987Z,4.90
2022-11-05T09:39:58.353Z,5.22
2022-11-05T09:42:32.972Z,5.43
2022-11-05T09:45:11.240Z,4.80
2022-11-05T09:48:01.426Z,5.22
2022-11-05T09:50:36.528Z,4.90
2022-11-05T09:53:04.239Z,5.32
2022-11-05T09:55:36.991Z,5.15
2022-11-05T09:58:15.415Z,4.43
2022-11-05T10:00:43.180Z,4.55
2022-11-05T10:03:17.743Z,4.72
2022-11-05T10:05:45.646Z,4.75
2022-11-05T10:08:34.533Z,4.35
2022-11-05T10:11:10.390Z,4.72
2022-11-05T10:13:44.235Z,3.67
2022-11-05T10:16:25.527Z,4.05
2022-11-05T10:19:03.444Z,4.00
2022-11-05T10:21:59.553Z,4.05
2022-11-05T10:24:19.701Z,3.78
2022-11-05T10:26:49.080Z,3.70
2022-11-05T10:29:32.476Z,3.70
2022-11-05T10:32:03.116Z,3.42
2022-11-05T10:34:33.712Z,3.53
2022-11-05T10:37:00.806Z,3.30
2022-11-05T10:39:27.855Z,3.95
2022-11-05T10:42:04.948Z,3.42
2022-11-05T10:44:45.153Z,2.50
2022-11-05T10:47:51.075Z,3.80
2022-11-05T10:50:24.951Z,3.13
2022-11-05T10:52:51.249Z,3.70
2022-11-05T10:55:25.713Z,3.13
2022-11-05T10:57:52.551Z,3.40
2022-11-05T11:00:24.647Z,3.42
2022-11-05T11:03:02.374Z,3.40
2022-11-05T11:05:36.008Z,3.50
2022-11-05T11:08:11.260Z,3.60
2022-11-05T11:10:48.943Z,3.35
2022-11-05T11:13:21.269Z,3.15
2022-11-05T11:15:50.749Z,3.25
2022-11-05T11:18:33.380Z,2.85
2022-11-05T11:21:19.971Z,3.20
2022-11-05T11:24:02.822Z,3.42
2022-11-05T11:26:37.018Z,2.95
2022-11-05T11:29:27.823Z,3.15
2022-11-05T11:31:56.190Z,2.78
2022-11-05T11:34:30.027Z,3.10
2022-11-05T11:37:08.264Z,3.13
2022-11-05T11:39:35.607Z,2.85
2022-11-05T11:42:18.098Z,3.10
2022-11-05T11:44:47.276Z,4.65
2022-11-05T11:47:17.391Z,3.17
2022-11-05T11:49:50.188Z,3.80
2022-11-05T11:52:32.647Z,4.70
2022-11-05T11:55:11.300Z,4.13
2022-11-05T11:57:50.000Z,4.72
2022-11-05T12:00:20.296Z,4.18
2022-11-05T12:03:21.435Z,5.55
2022-11-05T12:06:04.763Z,5.13
2022-11-05T12:08:34.038Z,4.22
2022-11-05T12:11:10.563Z,4.72
2022-11-05T12:13:43.066Z,4.47
2022-11-05T12:16:28.280Z,4.65
2022-11-05T12:19:07.162Z,4.32
2022-11-05T12:21:52.956Z,4.32
2022-11-05T12:24:41.894Z,4.55
2022-11-05T12:27:32.731Z,4.28
2022-11-05T12:30:08.847Z,3.88
2022-11-05T12:32:41.237Z,4.00
2022-11-05T12:35:26.328Z,3.60
2022-11-05T12:38:11.083Z,3.65
2022-11-05T12:40:51.065Z,4.35
2022-11-05T12:43:40.870Z,3.08
2022-11-05T12:46:33.237Z,3.80
2022-11-05T12:49:10.703Z,3.90
2022-11-05T12:52:06.349Z,4.05
2022-11-05T12:54:32.780Z,3.67
2022-11-05T12:57:03.451Z,3.67
2022-11-05T12:59:36.411Z,4.63
2022-11-05T13:02:18.513Z,3.95
2022-11-05T13:05:07.740Z,4.10
2022-11-05T13:07:39.383Z,3.55
2022-11-05T13:10:18.049Z,3.67
2022-11-05T13:12:49.141Z,4.05
2022-11-05T13:15:26.524Z,3.83
2022-11-05T13:18:15.020Z,4.13
2022-11-05T13:20:46.237Z,3.42
2022-11-05T13:23:17.265Z,3.10
2022-11-05T13:26:01.991Z,2.88
2022-11-05T13:28:31.284Z,2.63
2022-11-05T13:31:02.293Z,2.85
2022-11-05T13:33:38.110Z,3.20
2022-11-05T13:39:42.494Z,3.80
2022-11-05T13:42:24.853Z,4.05
2022-11-05T13:45:13.025Z,3.70
2022-11-05T13:48:19.032Z,3.90
2022-11-05T13:50:48.420Z,3.38
2022-11-05T13:53:15.210Z,3.13
2022-11-05T13:56:15.266Z,3.13
2022-11-05T13:59:03.561Z,2.97
2022-11-05T14:01:53.061Z,2.90
2022-11-05T14:04:28.513Z,2.67
2022-11-05T14:09:35.761Z,2.20
2022-11-05T14:12:05.008Z,2.33
2022-11-05T14:14:45.675Z,2.30
2022-11-05T14:17:28.083Z,2.83
2022-11-05T14:20:06.460Z,2.03
2022-11-05T14:22:32.915Z,2.58
2022-11-05T14:25:22.378Z,2.70
2022-11-05T14:27:52.250Z,2.20
2022-11-05T14:30:42.033Z,2.63
2022-11-05T14:33:29.511Z,2.35
2022-11-05T14:36:21.862Z,2.15
2022-11-05T14:38:55.522Z,1.95
2022-11-05T14:41:24.487Z,2.00
2022-11-05T14:43:59.228Z,2.55
2022-11-05T14:46:43.296Z,2.42
2022-11-05T14:49:19.883Z,2.40
2022-11-05T14:51:50.233Z,2.20
2022-11-05T14:54:22.548Z,2.15
2022-11-05T14:56:56.540Z,2.08
2022-11-05T14:59:31.430Z,3.13
2022-11-05T15:02:00.929Z,2.55
2022-11-05T15:04:27.508Z,2.60
2022-11-05T15:07:05.947Z,2.70
2022-11-05T15:09:40.267Z,2.15
2022-11-05T15:12:32.782Z,2.30
2022-11-05T15:15:00.802Z,2.05
2022-11-05T15:17:30.072Z,5.85
2022-11-05T15:20:27.360Z,4.70
2022-11-05T15:23:03.278Z,2.58
2022-11-05T15:25:42.746Z,2.47
2022-11-05T15:28:26.200Z,2.92
2022-11-05T15:31:02.296Z,2.90
2022-11-05T15:33:29.954Z,3.03
2022-11-05T15:36:09.057Z,2.90
2022-11-05T15:38:36.282Z,2.88
2022-11-05T15:41:15.386Z,2.70
2022-11-05T15:43:48.091Z,2.55
2022-11-05T15:46:20.750Z,2.72
2022-11-05T15:49:00.262Z,3.15
2022-11-05T15:51:26.812Z,3.03
2022-11-05T15:59:28.943Z,3.58
2022-11-05T16:02:22.343Z,3.65
2022-11-05T16:04:49.538Z,4.03
2022-11-05T16:07:24.531Z,4.20
2022-11-05T16:09:55.194Z,4.45
2022-11-05T16:12:33.413Z,4.00
2022-11-05T16:15:04.466Z,4.20
2022-11-05T16:17:45.462Z,4.18
2022-11-05T16:20:33.090Z,4.65
2022-11-05T16:23:02.342Z,4.43
2022-11-05T16:25:49.390Z,4.93
2022-11-05T16:28:28.180Z,4.85
2022-11-05T16:31:00.817Z,5.22
2022-11-05T16:33:33.997Z,4.80
2022-11-05T16:36:00.481Z,5.38
2022-11-05T16:38:27.736Z,5.82
2022-11-05T16:40:54.145Z,5.13
2022-11-05T16:43:23.500Z,5.22
2022-11-05T16:45:53.611Z,5.88
2022-11-05T16:48:20.041Z,6.00
2022-11-05T16:50:46.933Z,5.25
2022-11-05T16:53:13.775Z,6.00
2022-11-05T16:55:42.732Z,6.18
2022-11-05T16:58:22.387Z,5.38
2022-11-05T17:00:51.104Z,6.00
2022-11-05T17:03:17.963Z,5.25
2022-11-05T17:05:44.622Z,5.80
2022-11-05T17:08:11.812Z,6.30
2022-11-05T17:10:38.725Z,6.13
2022-11-05T17:13:05.520Z,6.35
2022-11-05T17:15:35.456Z,6.32
2022-11-05T17:18:04.036Z,6.38
2022-11-05T17:20:39.917Z,6.60
2022-11-05T17:23:09.611Z,5.93
2022-11-05T17:25:36.781Z,5.95
2022-11-05T17:28:03.778Z,6.95
2022-11-05T17:30:30.667Z,6.70
2022-11-05T17:32:57.153Z,6.38
2022-11-05T17:35:23.939Z,6.78
2022-11-05T17:37:50.579Z,6.38
2022-11-05T17:40:21.364Z,6.35
2022-11-05T17:42:48.328Z,6.68
2022-11-05T17:45:14.773Z,6.38
2022-11-05T17:47:41.669Z,6.82
2022-11-05T17:50:10.609Z,6.85
2022-11-05T17:52:37.014Z,6.20
2022-11-05T17:55:05.492Z,6.15
2022-11-05T17:57:31.852Z,6.32
2022-11-05T17:59:58.369Z,6.18
2022-11-05T18:02:26.560Z,6.03
2022-11-05T18:04:53.205Z,5.90
2022-11-05T18:07:19.629Z,6.00
2022-11-05T18:09:46.083Z,6.35
2022-11-05T18:12:12.495Z,6.40
2022-11-05T18:14:38.897Z,5.85
2022-11-05T18:17:05.365Z,5.88
2022-11-05T18:19:32.035Z,6.57
2022-11-05T18:21:58.591Z,6.35
2022-11-05T18:24:25.097Z,6.30
2022-11-05T18:26:51.646Z,6.10
2022-11-05T18:29:18.006Z,5.53
2022-11-05T18:31:44.817Z,6.30
2022-11-05T18:34:11.283Z,6.53
2022-11-05T18:36:37.944Z,6.25
2022-11-05T18:39:05.970Z,7.45
2022-11-05T18:41:32.906Z,6.47
2022-11-05T18:44:03.647Z,8.90
2022-11-05T18:46:59.181Z,12.05
2022-11-05T18:49:18.205Z,7.95
2022-11-05T18:51:44.774Z,8.10
2022-11-05T18:54:11.557Z,6.03
2022-11-05T18:56:44.605Z,7.00
2022-11-05T19:02:00.522Z,6.68
2022-11-05T19:04:27.358Z,6.50
2022-11-05T19:06:53.811Z,6.97
2022-11-05T19:09:20.832Z,7.30
2022-11-05T19:11:47.346Z,7.35
2022-11-05T19:14:14.016Z,6.90
2022-11-05T19:16:40.409Z,7.78
2022-11-05T19:19:07.458Z,7.82
2022-11-05T19:21:33.913Z,8.65
2022-11-05T19:24:03.142Z,8.30
2022-11-05T19:26:29.754Z,8.57
2022-11-05T19:29:01.003Z,8.60
2022-11-05T19:31:27.917Z,8.95
2022-11-05T19:33:55.266Z,7.35
2022-11-05T19:36:23.010Z,9.13
2022-11-05T19:38:58.295Z,9.80
2022-11-05T19:41:26.243Z,8.90
2022-11-05T19:43:57.933Z,9.77
2022-11-05T19:46:25.028Z,10.27
2022-11-05T19:48:52.076Z,13.13
2022-11-05T19:51:30.896Z,9.02
2022-11-05T19:53:59.794Z,8.95
2022-11-05T19:56:31.656Z,9.02
2022-11-05T19:58:59.347Z,9.35
2022-11-05T20:01:28.216Z,9.23
2022-11-05T20:03:56.765Z,9.32
2022-11-05T20:06:28.805Z,9.73
2022-11-05T20:09:21.030Z,9.55
2022-11-05T20:11:48.331Z,8.93
2022-11-05T20:14:14.834Z,9.25
2022-11-05T20:16:42.686Z,9.07
2022-11-05T20:19:12.594Z,9.23
2022-11-05T20:21:39.443Z,9.05
2022-11-05T20:24:06.669Z,9.20
2022-11-05T20:26:34.227Z,8.20
2022-11-05T20:29:00.920Z,9.27
2022-11-05T20:31:27.288Z,8.68
2022-11-05T20:33:54.468Z,9.93
2022-11-05T20:36:22.853Z,8.70
2022-11-05T20:38:58.006Z,9.10
2022-11-05T20:43:52.146Z,8.32
2022-11-05T20:46:21.370Z,8.88
2022-11-05T20:48:48.631Z,9.10
2022-11-05T20:51:20.101Z,8.82
2022-11-05T20:53:47.629Z,9.73
2022-11-05T20:56:23.115Z,8.10
2022-11-05T20:58:50.283Z,8.93
2022-11-05T21:01:17.698Z,8.68
2022-11-05T21:03:45.729Z,8.95
2022-11-05T21:06:13.361Z,7.43
2022-11-05T21:08:40.737Z,8.73
2022-11-05T21:11:07.703Z,8.48
2022-11-05T21:13:34.589Z,8.82
2022-11-05T21:16:02.111Z,8.50
2022-11-05T21:18:31.332Z,7.68
2022-11-05T21:20:59.720Z,9.48
2022-11-05T21:23:27.365Z,8.25
2022-11-05T21:25:54.169Z,7.93
2022-11-05T21:28:20.556Z,7.57
2022-11-05T21:30:47.551Z,8.10
2022-11-05T21:33:15.722Z,8.90
2022-11-05T21:35:46.083Z,8.40
2022-11-05T21:38:15.136Z,8.25
2022-11-05T21:40:42.614Z,7.40
2022-11-05T21:43:09.155Z,7.78
2022-11-05T21:45:38.937Z,7.60
2022-11-05T21:48:05.887Z,8.13
2022-11-05T21:50:50.604Z,7.55
2022-11-05T21:53:36.056Z,6.97
2022-11-05T21:56:26.040Z,7.60
2022-11-05T21:59:10.990Z,7.45
2022-11-05T22:01:37.455Z,7.93
2022-11-05T22:04:04.237Z,8.55
2022-11-05T22:06:33.393Z,7.15
2022-11-05T22:09:00.092Z,7.82
2022-11-05T22:11:26.676Z,8.25
2022-11-05T22:13:53.463Z,8.00
2022-11-05T22:16:19.977Z,11.35
2022-11-05T22:18:46.373Z,8.95
2022-11-05T22:21:19.186Z,9.57
2022-11-05T22:23:45.640Z,8.60
2022-11-05T22:26:12.280Z,10.10
2022-11-05T22:28:38.691Z,8.75
2022-11-05T22:31:12.478Z,7.15
2022-11-05T22:33:38.928Z,8.85
2022-11-05T22:36:05.877Z,9.88
2022-11-05T22:38:32.252Z,8.73
2022-11-05T22:40:58.902Z,7.05
2022-11-05T22:43:25.316Z,6.25
2022-11-05T22:45:51.714Z,7.03
2022-11-05T22:48:18.218Z,7.78
2022-11-05T22:50:44.700Z,8.13
2022-11-05T22:53:11.266Z,6.60
2022-11-05T22:55:40.482Z,6.70
2022-11-05T22:58:07.050Z,6.68
2022-11-05T23:00:37.627Z,6.07
2022-11-05T23:03:04.546Z,5.93
2022-11-05T23:05:31.071Z,5.68
2022-11-05T23:08:16.209Z,6.80
2022-11-05T23:11:01.408Z,5.50
2022-11-05T23:13:27.782Z,5.45
2022-11-05T23:16:12.906Z,5.00
2022-11-05T23:18:58.185Z,5.75
2022-11-05T23:21:43.241Z,5.05
2022-11-05T23:24:11.860Z,6.32
2022-11-05T23:26:51.412Z,6.68
2022-11-05T23:29:20.207Z,8.13
2022-11-05T23:32:06.048Z,8.50
2022-11-05T23:34:32.647Z,8.48
2022-11-05T23:37:17.544Z,6.97
2022-11-05T23:39:44.126Z,6.78
2022-11-05T23:42:30.084Z,5.10
2022-11-05T23:45:15.308Z,5.43
2022-11-05T23:48:01.221Z,5.35
2022-11-05T23:50:27.790Z,5.47
2022-11-05T23:52:54.753Z,5.63
2022-11-05T23:55:21.931Z,6.15
2022-11-05T23:57:49.323Z,5.53
